Time;durP1;ratioP1;P1;durP2;ratioP2;P2;SDS_P1;SDS_P2;PMS_P1;PMS_P2;Temp;Humidity;BMP_temperature;BMP_pressure;BME280_temperature;BME280_humidity;BME280_pressure;Samples;Min_cycle;Max_cycle;Signal;HPM_P1;HPM_P2
2023/03/14 00:00:26;;;;;;;7.90;7.20;;;;;;;-145.53;100.00;64590.91;6304246;28;20427;-66
2023/03/14 00:03:38;;;;;;;8.27;7.67;;;;;;;-145.53;100.00;64590.91;6288864;28;20438;-65
2023/03/14 00:06:44;;;;;;;7.97;7.27;;;;;;;-145.53;100.00;64590.91;6274853;28;20526;-65
2023/03/14 00:09:53;;;;;;;7.93;7.33;;;;;;;-145.53;100.00;64590.91;6290738;28;20439;-66
2023/03/14 00:13:03;;;;;;;8.00;7.30;;;;;;;-145.53;100.00;64590.91;6289243;28;20427;-66
2023/03/14 00:16:14;;;;;;;7.20;6.60;;;;;;;-145.53;100.00;64590.91;6287184;28;20435;-66
2023/03/14 00:19:25;;;;;;;7.83;7.23;;;;;;;-145.53;100.00;64590.91;6273926;28;20451;-66
2023/03/14 00:22:31;;;;;;;7.30;6.80;;;;;;;-145.53;100.00;64590.91;6285040;28;20479;-66
2023/03/14 00:25:41;;;;;;;7.83;7.10;;;;;;;-145.53;100.00;64590.91;6286862;28;20435;-66
2023/03/14 00:28:53;;;;;;;6.93;6.43;;;;;;;-145.53;100.00;64590.91;6274331;28;20474;-65
2023/03/14 00:32:00;;;;;;;7.07;6.57;;;;;;;-145.53;100.00;64590.91;6286157;28;20442;-66
2023/03/14 00:35:09;;;;;;;6.80;6.27;;;;;;;-145.53;100.00;64590.91;6296365;28;20465;-66
2023/03/14 00:38:20;;;;;;;6.57;6.07;;;;;;;-145.53;100.00;64590.91;6295576;28;20431;-66
2023/03/14 00:41:27;;;;;;;6.70;6.20;;;;;;;-145.53;100.00;64590.91;6278128;28;20439;-67
2023/03/14 00:44:37;;;;;;;7.30;6.70;;;;;;;-145.53;100.00;64590.91;6286361;28;20940;-66
2023/03/14 00:47:47;;;;;;;6.70;6.20;;;;;;;-145.53;100.00;64590.91;6285847;28;20913;-66
2023/03/14 00:50:57;;;;;;;6.20;5.70;;;;;;;-145.53;100.00;64590.91;6281065;28;20968;-67
2023/03/14 00:54:05;;;;;;;10.63;5.63;;;;;;;-145.53;100.00;64590.91;6287333;28;20454;-66
2023/03/14 00:57:13;;;;;;;6.20;5.70;;;;;;;-145.53;100.00;64590.91;6292708;28;20558;-66
2023/03/14 01:00:19;;;;;;;6.60;6.00;;;;;;;-145.53;100.00;64590.91;6280549;28;20791;-66
2023/03/14 01:03:29;;;;;;;5.60;5.17;;;;;;;-145.53;100.00;64590.91;6271894;28;20453;-66
2023/03/14 01:06:39;;;;;;;5.80;5.30;;;;;;;-145.53;100.00;64590.91;6290773;28;20441;-65
2023/03/14 01:09:55;;;;;;;5.97;5.50;;;;;;;-145.53;100.00;64590.91;6293003;28;20431;-66
2023/03/14 01:13:06;;;;;;;6.47;5.93;;;;;;;-145.53;100.00;64590.91;6301796;28;20446;-66
2023/03/14 01:16:18;;;;;;;6.67;6.10;;;;;;;-145.53;100.00;64590.91;6278923;28;20454;-67
2023/03/14 01:19:29;;;;;;;6.57;6.07;;;;;;;-145.53;100.00;64590.91;6289675;28;20542;-65
2023/03/14 01:22:39;;;;;;;5.80;5.40;;;;;;;-145.53;100.00;64590.91;6289975;28;20434;-67
2023/03/14 01:25:47;;;;;;;7.33;6.83;;;;;;;-145.53;100.00;64590.91;6276433;28;20439;-65
2023/03/14 01:28:54;;;;;;;7.00;6.40;;;;;;;-145.53;100.00;64590.91;6286646;28;20423;-65
2023/03/14 01:32:02;;;;;;;6.77;6.27;;;;;;;-145.53;100.00;64590.91;6287323;28;20532;-67
2023/03/14 01:35:12;;;;;;;7.17;6.67;;;;;;;-145.53;100.00;64590.91;6296045;28;20584;-66
2023/03/14 01:38:18;;;;;;;7.43;6.83;;;;;;;-145.53;100.00;64590.91;6285496;28;20475;-67
2023/03/14 01:41:35;;;;;;;7.03;6.43;;;;;;;-145.53;100.00;64590.91;6289123;28;20437;-67
2023/03/14 01:44:58;;;;;;;7.20;6.60;;;;;;;-145.53;100.00;64590.91;6289911;28;20431;-67
2023/03/14 01:48:07;;;;;;;8.03;7.30;;;;;;;-145.53;100.00;64590.91;6300780;28;20481;-65
2023/03/14 01:51:21;;;;;;;7.70;7.10;;;;;;;-145.53;100.00;64590.91;6297353;28;20445;-67
2023/03/14 01:54:35;;;;;;;8.03;7.33;;;;;;;-145.53;100.00;64590.91;6288523;28;20423;-66
2023/03/14 01:57:53;;;;;;;7.93;7.23;;;;;;;-145.53;100.00;64590.91;6296820;28;20528;-67
2023/03/14 02:01:05;;;;;;;8.47;7.87;;;;;;;-145.53;100.00;64590.91;6277421;28;21006;-66
2023/03/14 02:04:13;;;;;;;7.83;7.23;;;;;;;-145.53;100.00;64590.91;6293102;28;20503;-67
2023/03/14 02:07:23;;;;;;;7.60;6.90;;;;;;;-145.53;100.00;64590.91;6298512;28;21022;-67
2023/03/14 02:10:36;;;;;;;8.27;7.57;;;;;;;-145.53;100.00;64590.91;6283098;28;20435;-66
2023/03/14 02:13:46;;;;;;;9.27;8.47;;;;;;;-145.53;100.00;64590.91;6278768;28;20526;-67
2023/03/14 02:16:55;;;;;;;8.17;7.47;;;;;;;-145.53;100.00;64590.91;6277104;28;20523;-67
2023/03/14 02:20:24;;;;;;;8.07;7.37;;;;;;;-145.53;100.00;64590.91;6290321;28;20896;-66
2023/03/14 02:23:37;;;;;;;8.10;7.50;;;;;;;-145.53;100.00;64590.91;6275547;28;20782;-68
2023/03/14 02:26:46;;;;;;;7.80;7.20;;;;;;;-145.53;100.00;64590.91;6283496;28;20481;-66
2023/03/14 02:29:55;;;;;;;8.93;8.13;;;;;;;-145.53;100.00;64590.91;6275886;28;20455;-67
2023/03/14 02:33:04;;;;;;;8.27;7.63;;;;;;;-145.53;100.00;64590.91;6279545;28;20444;-66
2023/03/14 02:36:15;;;;;;;8.30;7.60;;;;;;;-145.53;100.00;64590.91;6282829;28;20442;-66
2023/03/14 02:39:31;;;;;;;8.57;7.87;;;;;;;-145.53;100.00;64590.91;6304028;28;20422;-66
2023/03/14 02:42:38;;;;;;;8.60;7.90;;;;;;;-145.53;100.00;64590.91;6286267;28;20428;-66
2023/03/14 02:45:54;;;;;;;9.37;8.57;;;;;;;-145.53;100.00;64590.91;6277924;28;20450;-67
2023/03/14 02:49:08;;;;;;;8.03;7.43;;;;;;;-145.53;100.00;64590.91;6286827;28;20443;-67
2023/03/14 02:52:15;;;;;;;8.63;7.93;;;;;;;-145.53;100.00;64590.91;6285467;28;20427;-66
2023/03/14 02:55:21;;;;;;;8.03;7.43;;;;;;;-145.53;100.00;64590.91;6284915;28;20432;-68
2023/03/14 02:58:27;;;;;;;7.40;6.80;;;;;;;-145.53;100.00;64590.91;6273573;28;20556;-66
2023/03/14 03:01:40;;;;;;;8.17;7.57;;;;;;;-145.53;100.00;64590.91;6289452;28;20813;-66
2023/03/14 03:04:49;;;;;;;8.63;7.90;;;;;;;-145.53;100.00;64590.91;6288284;28;20847;-66
2023/03/14 03:08:00;;;;;;;7.60;7.00;;;;;;;-145.53;100.00;64590.91;6296819;28;20453;-66
2023/03/14 03:11:09;;;;;;;8.23;7.40;;;;;;;-145.53;100.00;64590.91;6280004;28;20447;-65
2023/03/14 03:14:21;;;;;;;7.90;7.30;;;;;;;-145.53;100.00;64590.91;6289972;28;20425;-66
2023/03/14 03:17:29;;;;;;;8.00;7.40;;;;;;;-145.53;100.00;64590.91;6284231;28;20424;-65
2023/03/14 03:20:34;;;;;;;8.10;7.40;;;;;;;-145.53;100.00;64590.91;6272986;28;20443;-66
2023/03/14 03:23:48;;;;;;;7.40;6.80;;;;;;;-145.53;100.00;64590.91;6283449;28;20522;-68
2023/03/14 03:26:55;;;;;;;8.37;7.67;;;;;;;-145.53;100.00;64590.91;6285411;28;20443;-67
2023/03/14 03:29:59;;;;;;;8.37;7.67;;;;;;;-145.53;100.00;64590.91;6286865;28;20951;-66
2023/03/14 03:33:05;;;;;;;8.00;7.20;;;;;;;-145.53;100.00;64590.91;6266981;28;20451;-66
2023/03/14 03:36:10;;;;;;;7.17;6.60;;;;;;;-145.53;100.00;64590.91;6295108;28;20426;-66
2023/03/14 03:39:16;;;;;;;7.40;6.80;;;;;;;-145.53;100.00;64590.91;6288388;28;20404;-67
2023/03/14 03:42:26;;;;;;;8.07;7.27;;;;;;;-145.53;100.00;64590.91;6282123;28;20465;-64
2023/03/14 03:45:40;;;;;;;8.07;7.37;;;;;;;-145.53;100.00;64590.91;6282011;28;20982;-66
2023/03/14 03:48:51;;;;;;;7.10;6.50;;;;;;;-145.53;100.00;64590.91;6285776;28;20431;-67
2023/03/14 03:52:05;;;;;;;7.40;6.20;;;;;;;-145.53;100.00;64590.91;6294309;28;20435;-67
2023/03/14 03:55:15;;;;;;;6.50;6.00;;;;;;;-145.53;100.00;64590.91;6273732;28;20836;-67
2023/03/14 03:58:26;;;;;;;7.00;6.40;;;;;;;-145.53;100.00;64590.91;6286630;28;20427;-67
2023/03/14 04:01:34;;;;;;;7.73;7.13;;;;;;;-145.53;100.00;64590.91;6294030;28;20507;-66
2023/03/14 04:04:48;;;;;;;7.10;6.40;;;;;;;-145.53;100.00;64590.91;6282195;28;20467;-65
2023/03/14 04:07:54;;;;;;;7.10;6.50;;;;;;;-145.53;100.00;64590.91;6272155;28;20438;-67
2023/03/14 04:11:02;;;;;;;6.70;6.10;;;;;;;-145.53;100.00;64590.91;6287193;28;20513;-67
2023/03/14 04:14:09;;;;;;;6.30;5.80;;;;;;;-145.53;100.00;64590.91;6283339;28;20431;-66
2023/03/14 04:17:17;;;;;;;6.80;6.20;;;;;;;-145.53;100.00;64590.91;6272042;28;20827;-66
2023/03/14 04:20:31;;;;;;;7.60;6.93;;;;;;;-145.53;100.00;64590.91;6302898;28;20524;-66
2023/03/14 04:23:42;;;;;;;7.33;6.73;;;;;;;-145.53;100.00;64590.91;6290592;28;20427;-62
2023/03/14 04:26:50;;;;;;;6.50;5.90;;;;;;;-145.53;100.00;64590.91;6292290;28;20923;-61
2023/03/14 04:29:59;;;;;;;6.50;5.90;;;;;;;-145.53;100.00;64590.91;6271666;28;20466;-60
2023/03/14 04:33:09;;;;;;;6.53;5.93;;;;;;;-145.53;100.00;64590.91;6297498;28;20782;-61
2023/03/14 04:36:22;;;;;;;7.00;6.40;;;;;;;-145.53;100.00;64590.91;6285089;28;20794;-60
2023/03/14 04:39:32;;;;;;;7.10;6.50;;;;;;;-145.53;100.00;64590.91;6281297;28;20440;-66
2023/03/14 04:42:37;;;;;;;6.83;6.20;;;;;;;-145.53;100.00;64590.91;6283815;28;20578;-63
2023/03/14 04:45:46;;;;;;;6.40;5.83;;;;;;;-145.53;100.00;64590.91;6291109;28;20427;-63
2023/03/14 04:48:53;;;;;;;7.30;6.80;;;;;;;-145.53;100.00;64590.91;6296756;28;20439;-64
2023/03/14 04:51:58;;;;;;;13.70;6.77;;;;;;;-145.53;100.00;64590.91;6275886;28;20457;-63
2023/03/14 04:55:05;;;;;;;8.27;6.00;;;;;;;-145.53;100.00;64590.91;6292496;28;20498;-64
2023/03/14 04:58:12;;;;;;;7.00;6.30;;;;;;;-145.53;100.00;64590.91;6287519;28;20431;-63
2023/03/14 05:01:18;;;;;;;6.53;5.93;;;;;;;-145.53;100.00;64590.91;6289425;28;20450;-63
2023/03/14 05:04:24;;;;;;;6.97;6.37;;;;;;;-145.53;100.00;64590.91;6288400;28;20438;-63
2023/03/14 05:07:30;;;;;;;6.30;5.70;;;;;;;-145.53;100.00;64590.91;6287212;28;20946;-63
2023/03/14 05:10:39;;;;;;;6.10;5.63;;;;;;;-145.53;100.00;64590.91;6287271;28;20918;-63
2023/03/14 05:13:46;;;;;;;6.43;5.83;;;;;;;-145.53;100.00;64590.91;6277099;28;20469;-63
2023/03/14 05:16:55;;;;;;;6.60;6.03;;;;;;;-145.53;100.00;64590.91;6285433;28;20451;-63
2023/03/14 05:20:07;;;;;;;6.77;6.07;;;;;;;-145.53;100.00;64590.91;6297219;28;20428;-63
2023/03/14 05:23:22;;;;;;;6.33;5.83;;;;;;;-145.53;100.00;64590.91;6287441;28;20474;-64
2023/03/14 05:26:28;;;;;;;6.30;5.70;;;;;;;-145.53;100.00;64590.91;6276165;28;20443;-63
2023/03/14 05:29:38;;;;;;;6.27;5.63;;;;;;;-145.53;100.00;64590.91;6286967;28;20436;-64
2023/03/14 05:32:51;;;;;;;7.13;5.33;;;;;;;-145.53;100.00;64590.91;6264921;28;20452;-64
2023/03/14 05:36:00;;;;;;;5.57;5.17;;;;;;;-145.53;100.00;64590.91;6258928;28;20820;-62
2023/03/14 05:39:11;;;;;;;5.73;5.20;;;;;;;-145.53;100.00;64590.91;6261618;28;20459;-63
2023/03/14 05:42:22;;;;;;;6.40;5.60;;;;;;;-145.53;100.00;64590.91;6286775;28;20420;-64
2023/03/14 05:45:30;;;;;;;6.77;6.17;;;;;;;-145.53;100.00;64590.91;6286808;28;20742;-63
2023/03/14 05:48:40;;;;;;;6.87;6.27;;;;;;;-145.53;100.00;64590.91;6276070;28;20843;-64
2023/03/14 05:51:50;;;;;;;8.30;7.60;;;;;;;-145.53;100.00;64590.91;6286517;28;20763;-64
2023/03/14 05:55:02;;;;;;;8.73;7.93;;;;;;;-145.53;100.00;64590.91;6286903;28;20420;-63
2023/03/14 05:58:14;;;;;;;9.53;8.67;;;;;;;-145.53;100.00;64590.91;6287394;28;20823;-64
2023/03/14 06:01:22;;;;;;;10.03;9.23;;;;;;;-145.53;100.00;64590.91;6275343;28;20443;-63
2023/03/14 06:04:31;;;;;;;9.90;9.00;;;;;;;-145.53;100.00;64590.91;6286283;28;20443;-66
2023/03/14 06:07:38;;;;;;;10.70;9.80;;;;;;;-145.53;100.00;64590.91;6286544;28;20423;-63
2023/03/14 06:10:49;;;;;;;11.70;10.70;;;;;;;-145.53;100.00;64590.91;6280548;28;20439;-63
2023/03/14 06:13:58;;;;;;;12.80;11.63;;;;;;;-145.53;100.00;64590.91;6282584;28;20462;-64
2023/03/14 06:17:07;;;;;;;13.07;11.80;;;;;;;-145.53;100.00;64590.91;6286147;28;20442;-64
2023/03/14 06:20:19;;;;;;;12.47;11.33;;;;;;;-145.53;100.00;64590.91;6286228;28;20436;-63
2023/03/14 06:23:32;;;;;;;12.63;11.53;;;;;;;-145.53;100.00;64590.91;6274471;28;20439;-63
2023/03/14 06:26:49;;;;;;;13.80;12.40;;;;;;;-145.53;100.00;64590.91;6286577;28;20431;-63
2023/03/14 06:30:01;;;;;;;13.37;12.23;;;;;;;-145.53;100.00;64590.91;6286662;28;20935;-63
2023/03/14 06:33:09;;;;;;;12.20;11.20;;;;;;;-145.53;100.00;64590.91;6283929;28;20435;-63
2023/03/14 06:36:19;;;;;;;13.03;11.93;;;;;;;-145.53;100.00;64590.91;6279523;28;20439;-63
2023/03/14 06:39:29;;;;;;;13.77;12.37;;;;;;;-145.53;100.00;64590.91;6286000;28;20480;-63
2023/03/14 06:42:45;;;;;;;12.30;11.20;;;;;;;-145.53;100.00;64590.91;6285751;28;20419;-64
2023/03/14 06:45:54;;;;;;;13.00;11.37;;;;;;;-145.53;100.00;64590.91;6274075;28;20509;-63
2023/03/14 06:49:06;;;;;;;11.70;10.60;;;;;;;-145.53;100.00;64590.91;6285328;28;20443;-63
2023/03/14 06:52:19;;;;;;;12.43;11.13;;;;;;;-145.53;100.00;64590.91;6285469;28;20478;-63
2023/03/14 06:55:27;;;;;;;12.40;11.30;;;;;;;-145.53;100.00;64590.91;6285723;28;20421;-64
2023/03/14 06:58:40;;;;;;;11.93;10.93;;;;;;;-145.53;100.00;64590.91;6274999;28;20442;-64
2023/03/14 07:01:46;;;;;;;13.57;12.40;;;;;;;-145.53;100.00;64590.91;6285699;28;20427;-64
2023/03/14 07:04:58;;;;;;;13.93;12.77;;;;;;;-145.53;100.00;64590.91;6285857;28;20420;-64
2023/03/14 07:08:08;;;;;;;13.60;12.50;;;;;;;-145.53;100.00;64590.91;6280281;28;20443;-63
2023/03/14 07:11:21;;;;;;;14.40;13.10;;;;;;;-145.53;100.00;64590.91;6281684;28;20447;-63
2023/03/14 07:14:32;;;;;;;15.07;13.67;;;;;;;-145.53;100.00;64590.91;6285127;28;20773;-63
2023/03/14 07:17:41;;;;;;;15.67;14.27;;;;;;;-145.53;100.00;64590.91;6285149;28;20503;-63
2023/03/14 07:20:52;;;;;;;15.53;14.23;;;;;;;-145.53;100.00;64590.91;6273999;28;20450;-63
2023/03/14 07:24:05;;;;;;;17.53;16.00;;;;;;;-145.53;100.00;64590.91;6284941;28;20427;-62
2023/03/14 07:27:12;;;;;;;17.37;15.77;;;;;;;-145.53;100.00;64590.91;6285001;28;20428;-64
2023/03/14 07:30:25;;;;;;;16.07;14.57;;;;;;;-145.53;100.00;64590.91;6284849;28;20420;-65
2023/03/14 07:33:38;;;;;;;15.27;13.97;;;;;;;-145.53;100.00;64590.91;6277798;28;20466;-63
2023/03/14 07:36:52;;;;;;;15.80;14.40;;;;;;;-145.53;100.00;64590.91;6284755;28;20501;-63
2023/03/14 07:40:06;;;;;;;17.53;16.03;;;;;;;-145.53;100.00;64590.91;6284798;28;20430;-64
2023/03/14 07:43:18;;;;;;;17.20;15.63;;;;;;;-145.53;100.00;64590.91;6273514;28;20451;-63
2023/03/14 07:46:33;;;;;;;13.67;12.50;;;;;;;-145.53;100.00;64590.91;6284682;28;20489;-64
2023/03/14 07:49:43;;;;;;;14.87;13.63;;;;;;;-145.53;100.00;64590.91;6284743;28;20423;-63
2023/03/14 07:52:51;;;;;;;16.00;14.60;;;;;;;-145.53;100.00;64590.91;6284314;28;20487;-63
2023/03/14 07:55:59;;;;;;;15.20;14.00;;;;;;;-145.53;100.00;64590.91;6273320;28;20433;-62
2023/03/14 07:59:11;;;;;;;15.40;13.93;;;;;;;-145.53;100.00;64590.91;6284212;28;20420;-63
2023/03/14 08:02:23;;;;;;;16.77;15.33;;;;;;;-145.53;100.00;64590.91;6283660;28;20447;-63
2023/03/14 08:05:36;;;;;;;17.47;15.87;;;;;;;-145.53;100.00;64590.91;6275728;28;20446;-63
2023/03/14 08:08:48;;;;;;;15.47;14.17;;;;;;;-145.53;100.00;64590.91;6283485;28;20898;-63
2023/03/14 08:11:59;;;;;;;16.40;15.00;;;;;;;-145.53;100.00;64590.91;6284369;28;20420;-63
2023/03/14 08:15:13;;;;;;;16.80;15.40;;;;;;;-145.53;100.00;64590.91;6284035;28;20427;-64
2023/03/14 08:18:26;;;;;;;17.27;15.77;;;;;;;-145.53;100.00;64590.91;6272601;28;20443;-63
2023/03/14 08:21:35;;;;;;;17.47;15.97;;;;;;;-145.53;100.00;64590.91;6284107;28;20428;-63
2023/03/14 08:24:45;;;;;;;17.20;15.80;;;;;;;-145.53;100.00;64590.91;6283947;28;20434;-63
2023/03/14 08:27:52;;;;;;;16.43;14.93;;;;;;;-145.53;100.00;64590.91;6279036;28;20798;-63
2023/03/14 08:31:05;;;;;;;15.90;14.60;;;;;;;-145.53;100.00;64590.91;6277927;28;20446;-63
2023/03/14 08:34:16;;;;;;;16.90;15.27;;;;;;;-145.53;100.00;64590.91;6283754;28;20443;-62
2023/03/14 08:37:27;;;;;;;16.63;15.07;;;;;;;-145.53;100.00;64590.91;6283868;28;20427;-63
2023/03/14 08:40:38;;;;;;;17.73;16.23;;;;;;;-145.53;100.00;64590.91;6272582;28;20446;-63
2023/03/14 08:43:44;;;;;;;16.30;14.87;;;;;;;-145.53;100.00;64590.91;6284100;28;20439;-63
2023/03/14 08:46:55;;;;;;;15.37;14.03;;;;;;;-145.53;100.00;64590.91;6283671;28;20431;-63
2023/03/14 08:50:03;;;;;;;17.30;15.80;;;;;;;-145.53;100.00;64590.91;6283938;28;20502;-63
2023/03/14 08:53:16;;;;;;;16.23;14.97;;;;;;;-145.53;100.00;64590.91;6272700;28;20955;-63
2023/03/14 08:56:27;;;;;;;15.93;14.53;;;;;;;-145.53;100.00;64590.91;6283541;28;20446;-63
2023/03/14 08:59:38;;;;;;;16.47;15.17;;;;;;;-145.53;100.00;64590.91;6283729;28;20435;-63
2023/03/14 09:02:50;;;;;;;16.70;15.30;;;;;;;-145.53;100.00;64590.91;6272939;28;20490;-62
2023/03/14 09:06:05;;;;;;;15.43;14.07;;;;;;;-145.53;100.00;64590.91;6283151;28;20431;-64
2023/03/14 09:09:14;;;;;;;15.17;13.97;;;;;;;-145.53;100.00;64590.91;6283462;28;20861;-64
2023/03/14 09:12:30;;;;;;;16.20;14.80;;;;;;;-145.53;100.00;64590.91;6283566;28;20418;-63
2023/03/14 09:15:42;;;;;;;16.47;15.07;;;;;;;-145.53;100.00;64590.91;6272454;28;20467;-63
2023/03/14 09:18:59;;;;;;;16.87;15.27;;;;;;;-145.53;100.00;64590.91;6283865;28;20427;-62
2023/03/14 09:22:13;;;;;;;15.23;13.93;;;;;;;-145.53;100.00;64590.91;6283608;28;20424;-62
2023/03/14 09:25:21;;;;;;;14.47;13.27;;;;;;;-145.53;100.00;64590.91;6277459;28;20525;-63
2023/03/14 09:28:31;;;;;;;15.00;13.70;;;;;;;-145.53;100.00;64590.91;6278008;28;20928;-64
2023/03/14 09:31:40;;;;;;;15.43;14.03;;;;;;;-145.53;100.00;64590.91;6283401;28;20433;-63
2023/03/14 09:34:51;;;;;;;14.97;13.50;;;;;;;-145.53;100.00;64590.91;6284672;28;20435;-64
2023/03/14 09:38:05;;;;;;;14.00;12.80;;;;;;;-145.53;100.00;64590.91;6276040;28;20537;-63
2023/03/14 09:41:18;;;;;;;13.80;12.60;;;;;;;-145.53;100.00;64590.91;6286921;28;20975;-64
2023/03/14 09:44:31;;;;;;;13.77;12.57;;;;;;;-145.53;100.00;64590.91;6287153;28;20427;-64
2023/03/14 09:47:40;;;;;;;14.63;13.13;;;;;;;-145.53;100.00;64590.91;6285631;28;20435;-62
2023/03/14 09:51:08;;;;;;;14.13;12.93;;;;;;;-145.53;100.00;64590.91;6281116;28;20435;-63
2023/03/14 09:54:37;;;;;;;14.57;13.30;;;;;;;-145.53;100.00;64590.91;6286835;28;20443;-64
2023/03/14 09:57:47;;;;;;;14.80;13.50;;;;;;;-145.53;100.00;64590.91;6286704;28;20427;-63
2023/03/14 10:00:56;;;;;;;13.13;12.03;;;;;;;-145.53;100.00;64590.91;6275331;28;20586;-64
2023/03/14 10:04:13;;;;;;;13.03;11.93;;;;;;;-145.53;100.00;64590.91;6285965;28;20470;-64
2023/03/14 10:07:20;;;;;;;13.30;12.20;;;;;;;-145.53;100.00;64590.91;6286887;28;20432;-63
2023/03/14 10:10:33;;;;;;;12.70;11.63;;;;;;;-145.53;100.00;64590.91;6283780;28;20450;-63
2023/03/14 10:13:51;;;;;;;13.00;11.90;;;;;;;-145.53;100.00;64590.91;6280374;28;20462;-63
2023/03/14 10:17:09;;;;;;;11.43;10.43;;;;;;;-145.53;100.00;64590.91;6286353;28;20427;-63
2023/03/14 10:20:32;;;;;;;13.10;11.90;;;;;;;-145.53;100.00;64590.91;6286224;28;20799;-63
2023/03/14 10:23:38;;;;;;;12.80;11.70;;;;;;;-145.53;100.00;64590.91;6275221;28;20439;-63
2023/03/14 10:26:44;;;;;;;12.27;11.20;;;;;;;-145.53;100.00;64590.91;6285897;28;20424;-63
2023/03/14 10:29:55;;;;;;;12.77;11.67;;;;;;;-145.53;100.00;64590.91;6286129;28;20513;-64
2023/03/14 10:33:09;;;;;;;12.07;11.10;;;;;;;-145.53;100.00;64590.91;6286100;28;20547;-64
2023/03/14 10:36:22;;;;;;;12.13;11.13;;;;;;;-145.53;100.00;64590.91;6278016;28;20457;-64
2023/03/14 10:39:43;;;;;;;11.83;10.83;;;;;;;-145.53;100.00;64590.91;6285956;28;20426;-63
2023/03/14 10:42:51;;;;;;;11.47;10.47;;;;;;;-145.53;100.00;64590.91;6285969;28;20564;-64
2023/03/14 10:46:00;;;;;;;10.60;9.80;;;;;;;-145.53;100.00;64590.91;6273480;28;20442;-64
2023/03/14 10:49:24;;;;;;;11.63;10.73;;;;;;;-145.53;100.00;64590.91;6285713;28;20425;-63
2023/03/14 10:52:31;;;;;;;11.90;10.90;;;;;;;-145.53;100.00;64590.91;6285511;28;20570;-63
2023/03/14 10:55:58;;;;;;;11.27;10.27;;;;;;;-145.53;100.00;64590.91;6283529;28;20444;-63
2023/03/14 10:59:05;;;;;;;11.00;10.00;;;;;;;-145.53;100.00;64590.91;6279513;28;20800;-63
2023/03/14 11:02:39;;;;;;;9.90;9.20;;;;;;;-145.53;100.00;64590.91;6284756;28;20439;-63
2023/03/14 11:05:47;;;;;;;10.13;9.33;;;;;;;-145.53;100.00;64590.91;6285336;28;20442;-64
2023/03/14 11:09:00;;;;;;;9.90;9.10;;;;;;;-145.53;100.00;64590.91;6274284;28;20435;-62
2023/03/14 11:12:37;;;;;;;10.10;9.30;;;;;;;-145.53;100.00;64590.91;6285312;28;20477;-63
2023/03/14 11:15:57;;;;;;;10.30;9.40;;;;;;;-145.53;100.00;64590.91;6285115;28;20951;-64
2023/03/14 11:19:31;;;;;;;10.33;9.43;;;;;;;-145.53;100.00;64590.91;6279892;28;20427;-64
2023/03/14 11:22:43;;;;;;;9.20;8.40;;;;;;;-145.53;100.00;64590.91;6284974;28;20962;-64
2023/03/14 11:26:01;;;;;;;10.00;9.10;;;;;;;-145.53;100.00;64590.91;6285137;28;20435;-63
2023/03/14 11:29:21;;;;;;;8.97;8.27;;;;;;;-145.53;100.00;64590.91;6284955;28;20912;-63
2023/03/14 11:32:43;;;;;;;8.80;8.10;;;;;;;-145.53;100.00;64590.91;6273162;28;20967;-64
2023/03/14 11:35:55;;;;;;;9.70;8.90;;;;;;;-145.53;100.00;64590.91;6284763;28;20441;-63
2023/03/14 11:39:14;;;;;;;9.60;8.90;;;;;;;-145.53;100.00;64590.91;6284657;28;20431;-63
2023/03/14 11:42:26;;;;;;;9.20;8.47;;;;;;;-145.53;100.00;64590.91;6274317;28;20818;-62
2023/03/14 11:45:38;;;;;;;8.70;7.90;;;;;;;-145.53;100.00;64590.91;6284054;28;20517;-63
2023/03/14 11:49:03;;;;;;;9.00;8.30;;;;;;;-145.53;100.00;64590.91;6284702;28;20450;-63
2023/03/14 11:52:19;;;;;;;8.77;8.07;;;;;;;-145.53;100.00;64590.91;6284196;28;20431;-63
2023/03/14 11:55:34;;;;;;;9.30;8.40;;;;;;;-145.53;100.00;64590.91;6273374;28;20454;-63
2023/03/14 11:58:54;;;;;;;8.60;7.90;;;;;;;-145.53;100.00;64590.91;6283955;28;20536;-63
2023/03/14 12:02:05;;;;;;;8.80;8.10;;;;;;;-145.53;100.00;64590.91;6283625;28;20431;-65
2023/03/14 12:05:37;;;;;;;8.20;7.60;;;;;;;-145.53;100.00;64590.91;6273496;28;21070;-63
2023/03/14 12:08:50;;;;;;;8.60;7.90;;;;;;;-145.53;100.00;64590.91;6284471;28;20437;-63
2023/03/14 12:11:59;;;;;;;8.73;7.93;;;;;;;-145.53;100.00;64590.91;6284104;28;20431;-64
2023/03/14 12:15:24;;;;;;;7.50;6.90;;;;;;;-145.53;100.00;64590.91;6284258;28;20801;-63
2023/03/14 12:18:39;;;;;;;7.80;7.20;;;;;;;-145.53;100.00;64590.91;6273117;28;20447;-64
2023/03/14 12:21:55;;;;;;;7.97;7.27;;;;;;;-145.53;100.00;64590.91;6284288;28;20832;-62
2023/03/14 12:25:20;;;;;;;8.77;8.07;;;;;;;-145.53;100.00;64590.91;6284302;28;20772;-61
2023/03/14 12:28:37;;;;;;;8.07;7.40;;;;;;;-145.53;100.00;64590.91;6272808;28;20802;-61
2023/03/14 12:31:48;;;;;;;7.80;7.20;;;;;;;-145.53;100.00;64590.91;6284297;28;20482;-60
2023/03/14 12:35:09;;;;;;;7.37;6.77;;;;;;;-145.53;100.00;64590.91;6284097;28;20419;-61
2023/03/14 12:38:32;;;;;;;7.93;7.33;;;;;;;-145.53;100.00;64590.91;6284053;28;20570;-60
2023/03/14 12:41:44;;;;;;;7.13;6.53;;;;;;;-145.53;100.00;64590.91;6274778;28;20435;-60
2023/03/14 12:44:54;;;;;;;8.07;7.37;;;;;;;-145.53;100.00;64590.91;6283820;28;20936;-60
2023/03/14 12:48:18;;;;;;;7.43;6.93;;;;;;;-145.53;100.00;64590.91;6283903;28;20419;-60
2023/03/14 12:51:36;;;;;;;7.70;7.10;;;;;;;-145.53;100.00;64590.91;6272816;28;20530;-61
2023/03/14 12:54:53;;;;;;;7.47;6.77;;;;;;;-145.53;100.00;64590.91;6283511;28;20912;-60
2023/03/14 12:58:10;;;;;;;7.93;7.23;;;;;;;-145.53;100.00;64590.91;6283495;28;20981;-60
2023/03/14 13:01:22;;;;;;;7.00;6.40;;;;;;;-145.53;100.00;64590.91;6283691;28;20439;-61
2023/03/14 13:04:35;;;;;;;6.83;6.30;;;;;;;-145.53;100.00;64590.91;6272272;28;20439;-60
2023/03/14 13:08:08;;;;;;;6.60;6.10;;;;;;;-145.53;100.00;64590.91;6283539;28;20773;-61
2023/03/14 13:11:22;;;;;;;6.67;6.17;;;;;;;-145.53;100.00;64590.91;6287383;28;20439;-61
2023/03/14 13:14:29;;;;;;;6.80;6.30;;;;;;;-145.53;100.00;64590.91;6276650;28;20435;-60
2023/03/14 13:17:36;;;;;;;6.60;6.10;;;;;;;-145.53;100.00;64590.91;6287552;28;20574;-61
2023/03/14 13:20:48;;;;;;;7.50;6.90;;;;;;;-145.53;100.00;64590.91;6287516;28;20431;-64
2023/03/14 13:24:01;;;;;;;7.50;6.90;;;;;;;-145.53;100.00;64590.91;6287532;28;20791;-60
2023/03/14 13:27:20;;;;;;;7.40;6.70;;;;;;;-145.53;100.00;64590.91;6276465;28;20578;-60
2023/03/14 13:30:29;;;;;;;6.97;6.47;;;;;;;-145.53;100.00;64590.91;6287435;28;20430;-60
2023/03/14 13:33:37;;;;;;;7.13;6.53;;;;;;;-145.53;100.00;64590.91;6287185;28;20431;-62
2023/03/14 13:36:41;;;;;;;6.70;6.20;;;;;;;-145.53;100.00;64590.91;6276626;28;20446;-60
2023/03/14 13:39:50;;;;;;;7.03;6.53;;;;;;;-145.53;100.00;64590.91;6286566;28;20513;-61
2023/03/14 13:43:13;;;;;;;6.50;6.00;;;;;;;-145.53;100.00;64590.91;6287020;28;20430;-60
2023/03/14 13:46:21;;;;;;;6.13;5.63;;;;;;;-145.53;100.00;64590.91;6287022;28;20426;-60
2023/03/14 13:49:28;;;;;;;6.87;6.27;;;;;;;-145.53;100.00;64590.91;6275802;28;20438;-63
2023/03/14 13:52:37;;;;;;;6.63;6.10;;;;;;;-145.53;100.00;64590.91;6286898;28;20454;-60
2023/03/14 13:55:42;;;;;;;6.57;5.97;;;;;;;-145.53;100.00;64590.91;6286654;28;20434;-61
2023/03/14 13:58:47;;;;;;;6.37;5.87;;;;;;;-145.53;100.00;64590.91;6281698;28;20495;-61
2023/03/14 14:01:53;;;;;;;6.70;6.10;;;;;;;-145.53;100.00;64590.91;6280261;28;20439;-61
2023/03/14 14:04:57;;;;;;;6.27;5.77;;;;;;;-145.53;100.00;64590.91;6286518;28;20420;-60
2023/03/14 14:08:05;;;;;;;6.43;5.93;;;;;;;-145.53;100.00;64590.91;6286250;28;20533;-60
2023/03/14 14:11:22;;;;;;;5.90;5.50;;;;;;;-145.53;100.00;64590.91;6274598;28;20581;-61
2023/03/14 14:14:45;;;;;;;5.87;5.37;;;;;;;-145.53;100.00;64590.91;6285943;28;20845;-60
2023/03/14 14:17:53;;;;;;;5.97;5.47;;;;;;;-145.53;100.00;64590.91;6285741;28;20442;-60
2023/03/14 14:20:59;;;;;;;6.40;5.90;;;;;;;-145.53;100.00;64590.91;6285521;28;20427;-60
2023/03/14 14:24:04;;;;;;;5.50;5.10;;;;;;;-145.53;100.00;64590.91;6274794;28;20509;-60